createdAt,value
2023-10-10T00:00:29.288Z,2.22
2023-10-10T00:05:41.731Z,2.20
2023-10-10T00:10:52.339Z,2.55
2023-10-10T00:15:58.556Z,2.10
2023-10-10T00:21:09.912Z,2.38
2023-10-10T00:26:16.700Z,2.70
2023-10-10T00:31:20.100Z,2.13
2023-10-10T00:36:32.611Z,2.72
2023-10-10T00:41:53.447Z,2.80
2023-10-10T00:46:59.085Z,2.40
2023-10-10T00:52:08.069Z,2.58
2023-10-10T00:57:15.236Z,2.50
2023-10-10T01:02:22.173Z,2.50
2023-10-10T01:07:28.152Z,2.42
2023-10-10T01:12:36.813Z,2.85
2023-10-10T01:17:40.676Z,2.60
2023-10-10T01:22:49.153Z,3.17
2023-10-10T01:27:55.808Z,2.63
2023-10-10T01:33:02.184Z,2.63
2023-10-10T01:38:15.220Z,3.00
2023-10-10T01:43:18.500Z,2.67
2023-10-10T01:48:26.574Z,2.80
2023-10-10T01:53:32.271Z,2.30
2023-10-10T01:58:37.937Z,2.40
2023-10-10T02:03:42.977Z,2.50
2023-10-10T02:09:15.257Z,2.20
2023-10-10T02:14:16.484Z,2.30
2023-10-10T02:19:26.933Z,2.28
2023-10-10T02:24:50.152Z,2.33
2023-10-10T02:29:54.771Z,2.67
2023-10-10T02:35:16.768Z,2.33
2023-10-10T02:40:32.215Z,2.47
2023-10-10T02:45:37.105Z,2.40
2023-10-10T02:50:43.021Z,2.38
2023-10-10T02:55:53.267Z,2.00
2023-10-10T03:00:58.956Z,2.63
2023-10-10T03:06:07.760Z,2.60
2023-10-10T03:11:36.755Z,2.65
2023-10-10T03:17:00.913Z,2.40
2023-10-10T03:22:19.544Z,2.93
2023-10-10T03:27:40.215Z,2.42
2023-10-10T03:33:01.050Z,2.67
2023-10-10T03:38:29.545Z,2.38
2023-10-10T03:44:00.259Z,2.33
2023-10-10T03:49:21.104Z,2.85
2023-10-10T03:54:38.096Z,2.97
2023-10-10T04:00:00.329Z,2.72
2023-10-10T04:05:27.047Z,2.40
2023-10-10T04:10:49.003Z,2.30
2023-10-10T04:16:11.096Z,2.63
2023-10-10T04:21:32.238Z,2.80
2023-10-10T04:26:52.691Z,2.50
2023-10-10T04:32:14.900Z,2.45
2023-10-10T04:37:37.429Z,2.50
2023-10-10T04:43:04.102Z,2.83
2023-10-10T04:48:26.382Z,2.75
2023-10-10T04:53:52.352Z,2.58
2023-10-10T04:59:14.048Z,2.80
2023-10-10T05:04:36.143Z,2.50
2023-10-10T05:09:56.617Z,2.60
2023-10-10T05:15:17.034Z,2.40
2023-10-10T05:20:41.784Z,2.50
2023-10-10T05:25:46.590Z,2.53
2023-10-10T05:30:49.791Z,2.72
2023-10-10T05:35:59.817Z,2.75
2023-10-10T05:41:04.398Z,2.55
2023-10-10T05:51:14.543Z,2.50
2023-10-10T05:56:18.899Z,2.60
2023-10-10T06:01:25.068Z,2.45
2023-10-10T06:06:30.328Z,2.75
2023-10-10T06:11:36.126Z,2.70
2023-10-10T06:16:39.806Z,3.17
2023-10-10T06:21:45.522Z,2.90
2023-10-10T06:26:50.786Z,2.72
2023-10-10T06:31:53.971Z,3.15
2023-10-10T06:37:00.447Z,2.80
2023-10-10T06:42:05.314Z,2.88
2023-10-10T06:47:12.989Z,2.67
2023-10-10T06:52:20.464Z,2.60
2023-10-10T06:57:37.606Z,2.40
2023-10-10T07:02:42.892Z,2.35
2023-10-10T07:07:56.206Z,2.58
2023-10-10T07:13:02.444Z,2.70
2023-10-10T07:18:15.598Z,2.60
2023-10-10T07:23:22.104Z,3.30
2023-10-10T07:28:27.410Z,2.78
2023-10-10T07:33:41.894Z,2.38
2023-10-10T07:43:54.050Z,2.90
2023-10-10T07:49:01.427Z,2.50
2023-10-10T07:54:14.034Z,2.53
2023-10-10T07:59:18.876Z,2.80
2023-10-10T08:04:23.751Z,2.53
2023-10-10T08:09:31.218Z,2.92
2023-10-10T08:14:38.924Z,2.67
2023-10-10T08:19:44.759Z,2.40
2023-10-10T08:24:49.353Z,2.28
2023-10-10T08:29:54.880Z,2.47
2023-10-10T08:35:06.054Z,2.30
2023-10-10T08:40:21.205Z,2.70
2023-10-10T08:45:27.797Z,2.30
2023-10-10T08:50:33.982Z,2.13
2023-10-10T08:55:42.414Z,2.72
2023-10-10T09:00:49.369Z,2.83
2023-10-10T09:05:53.250Z,3.13
2023-10-10T09:11:02.418Z,2.60
2023-10-10T09:16:16.594Z,2.90
2023-10-10T09:21:25.724Z,2.50
2023-10-10T09:26:38.244Z,2.38
2023-10-10T09:31:46.993Z,2.40
2023-10-10T09:37:03.672Z,2.47
2023-10-10T09:42:30.166Z,2.50
2023-10-10T09:47:45.388Z,2.40
2023-10-10T09:52:51.711Z,2.40
2023-10-10T09:58:09.750Z,2.15
2023-10-10T10:03:33.454Z,2.00
2023-10-10T10:08:46.267Z,1.85
2023-10-10T10:19:29.388Z,1.90
2023-10-10T10:24:54.044Z,2.17
2023-10-10T10:30:09.972Z,2.10
2023-10-10T10:35:16.964Z,2.20
2023-10-10T10:40:26.441Z,1.70
2023-10-10T10:45:36.619Z,2.25
2023-10-10T10:50:47.039Z,2.03
2023-10-10T10:56:07.993Z,1.80
2023-10-10T11:01:18.106Z,1.90
2023-10-10T11:06:21.747Z,2.10
2023-10-10T11:11:28.176Z,1.80
2023-10-10T11:16:57.796Z,1.60
2023-10-10T11:22:06.801Z,1.52
2023-10-10T11:27:16.738Z,1.50
2023-10-10T11:32:30.921Z,1.52
2023-10-10T11:37:36.140Z,1.30
2023-10-10T11:42:39.448Z,1.77
2023-10-10T11:47:57.733Z,1.45
2023-10-10T11:53:02.526Z,1.35
2023-10-10T11:58:09.454Z,1.48
2023-10-10T12:03:21.846Z,1.70
2023-10-10T12:08:26.261Z,1.60
2023-10-10T12:13:39.177Z,1.40
2023-10-10T12:18:52.813Z,1.30
2023-10-10T12:24:10.750Z,1.75
2023-10-10T12:29:44.115Z,1.73
2023-10-10T12:35:01.155Z,1.58
2023-10-10T12:40:34.119Z,1.42
2023-10-10T12:45:55.840Z,1.20
2023-10-10T12:59:25.879Z,1.30
2023-10-10T13:14:21.207Z,1.35
2023-10-10T13:19:54.937Z,1.10
2023-10-10T13:25:34.314Z,1.40
2023-10-10T13:36:47.303Z,1.65
2023-10-10T13:47:33.407Z,1.60
2023-10-10T13:52:40.762Z,1.58
2023-10-10T13:58:01.818Z,1.23
2023-10-10T14:03:47.073Z,1.30
2023-10-10T14:09:47.945Z,1.27
2023-10-10T14:15:40.321Z,1.08
2023-10-10T14:21:15.468Z,1.27
2023-10-10T14:26:56.865Z,1.40
2023-10-10T14:32:35.124Z,1.50
2023-10-10T14:38:36.228Z,1.20
2023-10-10T14:43:57.404Z,1.38
2023-10-10T14:49:31.020Z,1.47
2023-10-10T14:55:00.396Z,1.23
2023-10-10T15:00:24.006Z,1.45
2023-10-10T15:05:40.615Z,1.48
2023-10-10T15:10:50.420Z,1.50
2023-10-10T15:16:14.137Z,1.20
2023-10-10T15:21:35.876Z,1.40
2023-10-10T15:26:49.846Z,1.30
2023-10-10T15:32:07.108Z,1.65
2023-10-10T15:37:24.785Z,1.27
2023-10-10T15:42:40.322Z,1.80
2023-10-10T15:47:56.601Z,1.75
2023-10-10T15:53:07.220Z,1.58
2023-10-10T15:58:30.792Z,1.48
2023-10-10T16:03:43.974Z,1.50
2023-10-10T16:09:10.102Z,1.45
2023-10-10T16:14:22.087Z,1.70
2023-10-10T16:19:40.203Z,1.87
2023-10-10T16:24:53.931Z,1.48
2023-10-10T16:30:07.119Z,1.58
2023-10-10T16:35:16.691Z,1.50
2023-10-10T16:40:24.721Z,1.80
2023-10-10T16:45:37.359Z,1.90
2023-10-10T16:50:44.479Z,1.73
2023-10-10T16:55:49.873Z,1.83
2023-10-10T17:00:54.755Z,1.70
2023-10-10T17:06:01.967Z,1.90
2023-10-10T17:11:12.341Z,1.98
2023-10-10T17:16:26.934Z,2.20
2023-10-10T17:21:38.167Z,2.22
2023-10-10T17:26:45.335Z,2.28
2023-10-10T17:31:57.190Z,2.38
2023-10-10T17:37:03.189Z,2.78
2023-10-10T17:42:12.473Z,2.63
2023-10-10T17:47:22.108Z,2.28
2023-10-10T17:52:34.499Z,2.63
2023-10-10T17:57:41.943Z,2.40
2023-10-10T18:02:57.478Z,2.35
2023-10-10T18:08:02.330Z,2.63
2023-10-10T18:13:06.714Z,2.28
2023-10-10T18:18:14.305Z,2.50
2023-10-10T18:23:22.563Z,2.38
2023-10-10T18:28:31.250Z,2.45
2023-10-10T18:33:41.537Z,2.65
2023-10-10T18:38:46.856Z,2.47
2023-10-10T18:43:51.637Z,2.70
2023-10-10T18:48:58.672Z,2.50
2023-10-10T18:54:09.615Z,2.30
2023-10-10T18:59:15.080Z,2.50
2023-10-10T19:04:23.051Z,2.58
2023-10-10T19:09:30.900Z,2.72
2023-10-10T19:14:47.450Z,2.25
2023-10-10T19:19:54.558Z,2.50
2023-10-10T19:24:59.175Z,2.50
2023-10-10T19:30:05.601Z,2.20
2023-10-10T19:35:15.415Z,2.72
2023-10-10T19:40:21.953Z,2.40
2023-10-10T19:45:27.758Z,2.88
2023-10-10T19:50:32.918Z,2.80
2023-10-10T19:55:38.711Z,2.20
2023-10-10T20:00:47.063Z,2.70
2023-10-10T20:05:54.346Z,2.47
2023-10-10T20:10:58.469Z,2.63
2023-10-10T20:16:04.403Z,2.80
2023-10-10T20:21:09.042Z,3.00
2023-10-10T20:26:18.440Z,3.08
2023-10-10T20:31:23.476Z,3.03
2023-10-10T20:36:28.197Z,2.80
2023-10-10T20:41:33.966Z,3.22
2023-10-10T20:46:37.894Z,3.40
2023-10-10T20:51:44.550Z,2.97
2023-10-10T20:56:50.086Z,3.28
2023-10-10T21:01:53.658Z,3.13
2023-10-10T21:07:00.703Z,2.90
2023-10-10T21:12:08.535Z,2.85
2023-10-10T21:17:13.611Z,2.70
2023-10-10T21:22:21.670Z,2.70
2023-10-10T21:27:25.114Z,2.97
2023-10-10T21:32:28.373Z,2.90
2023-10-10T21:37:32.956Z,3.30
2023-10-10T21:42:36.140Z,2.88
2023-10-10T21:47:40.890Z,3.15
2023-10-10T21:52:47.165Z,2.92
2023-10-10T21:57:53.107Z,2.67
2023-10-10T22:02:56.389Z,3.00
2023-10-10T22:08:01.869Z,3.20
2023-10-10T22:13:05.649Z,3.20
2023-10-10T22:18:09.100Z,3.00
2023-10-10T22:23:20.351Z,2.80
2023-10-10T22:28:23.520Z,3.20
2023-10-10T22:33:26.782Z,2.80
2023-10-10T22:38:32.679Z,2.92
2023-10-10T22:43:37.933Z,3.10
2023-10-10T22:48:41.316Z,3.08
2023-10-10T22:53:47.867Z,3.33
2023-10-10T22:58:51.249Z,3.05
2023-10-10T23:03:54.605Z,3.65
2023-10-10T23:09:00.051Z,3.20
2023-10-10T23:14:06.345Z,3.17
2023-10-10T23:19:10.373Z,3.20
2023-10-10T23:24:18.200Z,3.28
2023-10-10T23:29:21.718Z,3.40
2023-10-10T23:34:25.548Z,3.47
2023-10-10T23:39:34.980Z,3.00
2023-10-10T23:44:43.610Z,2.75
2023-10-10T23:49:52.097Z,2.72
2023-10-10T23:54:57.241Z,3.05
